Weather History for Gwinner, ND

Change the Weather History Date:

Tuesday, December 4, 2012

  Actual Average (KP67) Record (KP67)
Temperature  
Mean Temperature 22 °F -  
Max Temperature 30 °F 23 °F 23 °F (1997)
Min Temperature 15 °F 13 °F 14 °F (1997)
Degree Days  
Heating Degree Days 42    
Moisture  
Dew Point 12 °F    
Average Humidity 66    
Maximum Humidity 80    
Minimum Humidity 47    
Precipitation  
Precipitation 0.00 in - - ()
Sea Level Pressure  
Sea Level Pressure 30.23 in    
Wind  
Wind Speed 8 mph (North)    
Max Wind Speed 15 mph    
Max Gust Speed 17 mph    
Visibility 10 miles    
Events      
Averages and records for this station are not official NWS values.
T = Trace of Precipitation, MM = Missing Value Source: NWS Daily Summary

Daily Weather History Graph

Daily Weather History Graph

Search for Another Location

Airport:

Trip Planner

Search our weather history database for the weather conditions in past years. The results will help you decide how hot, cold, wet, or windy it might be!

Date:

Astronomy

Dec. 04, 2012 Rise Set
Actual Time 7:56 AM CST 4:45 PM CST
Civil Twilight 7:22 AM CST 5:19 PM CST
Nautical Twilight 6:44 AM CST 5:57 PM CST
Astronomical Twilight 6:08 AM CST 6:33 PM CST
Moon 10:47 PM CST (12/4) 11:39 AM CST (12/4)
Length of Visible Light 9h 56m
Length of Day
8h 48m
Waning Gibbous, 69% of the Moon is Illuminated
Dec 4
Waning Gibbous
Dec 6
Last Quarter
Dec 13
New
Dec 19
First Quarter
Dec 28
Full

Hourly Weather History & Observations

Time (CST) Temp. Windchill Dew Point Humidity Pressure Visibility Wind Dir Wind Speed Gust Speed Precip Events Conditions
12:15 AM 30.2 °F 21.3 °F 21.2 °F 69% 29.99 in 10.0 mi NW 10.4 mph - 0.00 in   Clear
12:35 AM 30.2 °F 24.3 °F 21.2 °F 69% 30.01 in 10.0 mi NNW 5.8 mph - 0.00 in   Clear
12:55 AM 28.4 °F 21.2 °F 21.2 °F 74% 30.01 in 10.0 mi NNW 6.9 mph - 0.00 in   Clear
1:15 AM 26.6 °F 17.5 °F 19.4 °F 74% 30.01 in 10.0 mi NNW 9.2 mph - 0.00 in   Clear
1:35 AM 24.8 °F 16.9 °F 19.4 °F 80% 30.02 in 10.0 mi NW 6.9 mph - 0.00 in   Clear
1:55 AM 24.8 °F 17.9 °F 19.4 °F 80% 30.03 in 10.0 mi NNW 5.8 mph - 0.00 in   Clear
2:15 AM 24.8 °F 16.9 °F 17.6 °F 74% 30.04 in 10.0 mi North 6.9 mph - 0.00 in   Clear
2:55 AM 23.0 °F 14.7 °F 17.6 °F 80% 30.05 in 10.0 mi WNW 6.9 mph - 0.00 in   Clear
3:15 AM 23.0 °F 17.0 °F 17.6 °F 80% 30.07 in 10.0 mi WNW 4.6 mph - 0.00 in   Clear
3:35 AM 21.2 °F 10.9 °F 15.8 °F 80% 30.07 in 10.0 mi WNW 9.2 mph - 0.00 in   Clear
3:55 AM 23.0 °F 14.7 °F 15.8 °F 74% 30.08 in 10.0 mi WNW 6.9 mph - 0.00 in   Clear
4:15 AM 23.0 °F 15.8 °F 14.0 °F 68% 30.09 in 10.0 mi NNW 5.8 mph - 0.00 in   Clear
4:35 AM 21.2 °F 13.6 °F 14.0 °F 74% 30.10 in 10.0 mi NW 5.8 mph - 0.00 in   Clear
4:55 AM 21.2 °F 11.7 °F 12.2 °F 68% 30.10 in 10.0 mi NW 8.1 mph - 0.00 in   Clear
5:15 AM 21.2 °F 14.9 °F 12.2 °F 68% 30.12 in 10.0 mi NW 4.6 mph - 0.00 in   Clear
5:35 AM 21.2 °F 11.7 °F 12.2 °F 68% 30.13 in 10.0 mi NW 8.1 mph - 0.00 in   Clear
5:55 AM 21.2 °F 9.5 °F 12.2 °F 68% 30.13 in 10.0 mi NW 11.5 mph - 0.00 in   Clear
6:15 AM 19.4 °F 10.4 °F 12.2 °F 74% 30.14 in 10.0 mi NW 6.9 mph - 0.00 in   Clear
6:35 AM 17.6 °F 7.3 °F 10.4 °F 73% 30.15 in 10.0 mi NW 8.1 mph - 0.00 in   Clear
6:55 AM 17.6 °F 7.3 °F 12.2 °F 79% 30.16 in 10.0 mi NW 8.1 mph - 0.00 in   Clear
7:15 AM 19.4 °F 7.2 °F 10.4 °F 68% 30.18 in 10.0 mi NW 11.5 mph - 0.00 in   Clear
7:35 AM 19.4 °F 7.2 °F 12.2 °F 74% 30.19 in 10.0 mi NW 11.5 mph - 0.00 in   Clear
7:55 AM 19.4 °F 8.6 °F 12.2 °F 74% 30.21 in 10.0 mi NW 9.2 mph - 0.00 in   Clear
8:15 AM 19.4 °F 8.6 °F 12.2 °F 74% 30.21 in 10.0 mi NW 9.2 mph - 0.00 in   Clear
8:35 AM 19.4 °F 7.2 °F 12.2 °F 74% 30.22 in 10.0 mi WNW 11.5 mph - 0.00 in   Clear
8:55 AM 19.4 °F 6.0 °F 12.2 °F 74% 30.23 in 10.0 mi NW 13.8 mph - 0.00 in   Clear
9:15 AM 21.2 °F 7.8 °F 12.2 °F 68% 30.24 in 10.0 mi NNW 15.0 mph - 0.00 in   Clear
9:55 AM 21.2 °F 7.8 °F 10.4 °F 63% 30.26 in 10.0 mi NNW 15.0 mph - 0.00 in   Clear
10:15 AM 21.2 °F 8.9 °F 10.4 °F 63% 30.27 in 10.0 mi NNW 12.7 mph - 0.00 in   Clear
10:35 AM 21.2 °F 8.3 °F 10.4 °F 63% 30.27 in 10.0 mi NNW 13.8 mph - 0.00 in   Clear
10:55 AM 23.0 °F 11.1 °F 12.2 °F 63% 30.28 in 10.0 mi NNW 12.7 mph 17.3 mph 0.00 in   Clear
11:15 AM 23.0 °F 11.1 °F 10.4 °F 59% 30.28 in 10.0 mi NNW 12.7 mph - 0.00 in   Clear
11:35 AM 23.0 °F 11.7 °F 10.4 °F 59% 30.29 in 10.0 mi North 11.5 mph - 0.00 in   Clear
11:55 AM 24.8 °F 15.3 °F 10.4 °F 54% 30.28 in 10.0 mi North 9.2 mph - 0.00 in   Clear
12:15 PM 24.8 °F 14.6 °F 10.4 °F 54% 30.28 in 10.0 mi North 10.4 mph - 0.00 in   Clear
12:35 PM 26.6 °F 17.5 °F 10.4 °F 51% 30.28 in 10.0 mi North 9.2 mph - 0.00 in   Clear
12:55 PM 26.6 °F 18.2 °F 10.4 °F 51% 30.28 in 10.0 mi North 8.1 mph - 0.00 in   Clear
1:15 PM 26.6 °F 19.1 °F 10.4 °F 51% 30.28 in 10.0 mi NNW 6.9 mph - 0.00 in   Clear
1:35 PM 28.4 °F 22.2 °F 10.4 °F 47% 30.29 in 10.0 mi NW 5.8 mph - 0.00 in   Clear
1:55 PM 28.4 °F 20.4 °F 10.4 °F 47% 30.29 in 10.0 mi NNW 8.1 mph - 0.00 in   Clear
2:15 PM 28.4 °F - 10.4 °F 47% 30.29 in 10.0 mi Calm Calm - 0.00 in   Clear
2:35 PM 28.4 °F 21.2 °F 10.4 °F 47% 30.29 in 10.0 mi North 6.9 mph - 0.00 in   Clear
2:55 PM 28.4 °F 23.3 °F 10.4 °F 47% 30.29 in 10.0 mi North 4.6 mph - 0.00 in   Clear
3:15 PM 28.4 °F 21.2 °F 10.4 °F 47% 30.29 in 10.0 mi North 6.9 mph - 0.00 in   Clear
3:35 PM 28.4 °F 20.4 °F 10.4 °F 47% 30.29 in 10.0 mi NNE 8.1 mph - 0.00 in   Clear
3:55 PM 28.4 °F 21.2 °F 10.4 °F 47% 30.30 in 10.0 mi NNE 6.9 mph - 0.00 in   Clear
4:15 PM 26.6 °F 20.0 °F 10.4 °F 51% 30.31 in 10.0 mi NE 5.8 mph - 0.00 in   Clear
4:35 PM 23.0 °F 14.7 °F 8.6 °F 54% 30.30 in 10.0 mi NE 6.9 mph - 0.00 in   Clear
4:55 PM 21.2 °F 12.6 °F 8.6 °F 58% 30.30 in 10.0 mi NE 6.9 mph - 0.00 in   Clear
5:15 PM 21.2 °F 14.9 °F 8.6 °F 58% 30.30 in 10.0 mi NE 4.6 mph - 0.00 in   Clear
5:35 PM 21.2 °F 14.9 °F 8.6 °F 58% 30.31 in 10.0 mi ENE 4.6 mph - 0.00 in   Clear
5:55 PM 19.4 °F - 8.6 °F 63% 30.31 in 10.0 mi Calm Calm - 0.00 in   Clear
6:15 PM 21.2 °F - 8.6 °F 58% 30.30 in 10.0 mi Calm Calm - 0.00 in   Clear
6:35 PM 19.4 °F - 10.4 °F 68% 30.31 in 10.0 mi Calm Calm - 0.00 in   Clear
6:55 PM 19.4 °F 12.8 °F 8.6 °F 63% 30.31 in 10.0 mi ENE 4.6 mph - 0.00 in   Clear
7:15 PM 19.4 °F 12.8 °F 8.6 °F 63% 30.31 in 10.0 mi ENE 4.6 mph - 0.00 in   Clear
7:35 PM 17.6 °F 9.3 °F 8.6 °F 68% 30.32 in 10.0 mi ENE 5.8 mph - 0.00 in   Clear
7:55 PM 17.6 °F 7.3 °F 8.6 °F 68% 30.32 in 10.0 mi East 8.1 mph - 0.00 in   Clear
8:15 PM 19.4 °F 10.4 °F 10.4 °F 68% 30.32 in 10.0 mi East 6.9 mph - 0.00 in   Clear
8:35 PM 17.6 °F 7.3 °F 10.4 °F 73% 30.34 in 10.0 mi East 8.1 mph - 0.00 in   Clear
8:55 PM 17.6 °F 9.3 °F 10.4 °F 73% 30.34 in 10.0 mi East 5.8 mph - 0.00 in   Clear
9:15 PM 15.8 °F 6.1 °F 10.4 °F 79% 30.34 in 10.0 mi ESE 6.9 mph - 0.00 in   Clear
9:35 PM 15.8 °F 6.1 °F 10.4 °F 79% 30.34 in 10.0 mi ESE 6.9 mph - 0.00 in   Clear
9:55 PM 17.6 °F 7.3 °F 10.4 °F 73% 30.33 in 10.0 mi East 8.1 mph - 0.00 in   Clear
10:15 PM 17.6 °F 7.3 °F 10.4 °F 73% 30.33 in 10.0 mi East 8.1 mph - 0.00 in   Clear
10:35 PM 17.6 °F 7.3 °F 10.4 °F 73% 30.33 in 10.0 mi ESE 8.1 mph - 0.00 in   Clear
10:55 PM 17.6 °F 5.7 °F 12.2 °F 79% 30.32 in 10.0 mi ESE 10.4 mph - 0.00 in   Clear
11:15 PM 17.6 °F 7.3 °F 12.2 °F 79% 30.32 in 10.0 mi ESE 8.1 mph - 0.00 in   Clear
11:35 PM 17.6 °F 8.2 °F 12.2 °F 79% 30.32 in 10.0 mi East 6.9 mph - 0.00 in   Clear
11:55 PM 17.6 °F 8.2 °F 12.2 °F 79% 30.31 in 10.0 mi ESE 6.9 mph - 0.00 in   Clear